createdAt,value
2023-03-10T00:02:00.726Z,38.10
2023-03-10T00:04:30.235Z,35.50
2023-03-10T00:06:59.139Z,35.30
2023-03-10T00:09:28.303Z,39.20
2023-03-10T00:11:57.452Z,41.90
2023-03-10T00:14:26.675Z,37.80
2023-03-10T00:16:55.517Z,32.60
2023-03-10T00:19:24.263Z,40.90
2023-03-10T00:21:53.787Z,37.80
2023-03-10T00:24:23.010Z,41.10
2023-03-10T00:26:52.692Z,41.10
2023-03-10T00:29:22.502Z,41.90
2023-03-10T00:31:57.682Z,39.90
2023-03-10T00:34:27.349Z,39.50
2023-03-10T00:36:56.713Z,40.70
2023-03-10T00:39:25.894Z,40.00
2023-03-10T00:41:54.998Z,39.10
2023-03-10T00:44:23.657Z,42.60
2023-03-10T00:46:52.778Z,42.20
2023-03-10T00:49:21.948Z,48.20
2023-03-10T00:51:51.107Z,40.70
2023-03-10T00:54:19.749Z,43.60
2023-03-10T00:56:49.101Z,39.50
2023-03-10T00:59:17.971Z,45.80
2023-03-10T01:01:47.334Z,45.40
2023-03-10T01:04:19.560Z,41.20
2023-03-10T01:06:48.351Z,47.60
2023-03-10T01:09:18.459Z,42.60
2023-03-10T01:11:47.548Z,45.20
2023-03-10T01:14:17.917Z,47.10
2023-03-10T01:16:46.638Z,45.60
2023-03-10T01:19:16.065Z,44.80
2023-03-10T01:21:45.599Z,47.20
2023-03-10T01:24:16.748Z,47.10
2023-03-10T01:26:45.979Z,48.60
2023-03-10T01:29:15.656Z,50.30
2023-03-10T01:31:44.460Z,52.20
2023-03-10T01:34:13.195Z,50.60
2023-03-10T01:36:42.723Z,50.30
2023-03-10T01:39:11.877Z,51.80
2023-03-10T01:41:41.698Z,56.30
2023-03-10T01:44:20.874Z,50.70
2023-03-10T01:46:54.397Z,53.30
2023-03-10T01:49:42.496Z,50.30
2023-03-10T01:52:20.822Z,48.50
2023-03-10T01:54:53.381Z,43.10
2023-03-10T01:57:36.810Z,42.30
2023-03-10T02:00:13.132Z,47.10
2023-03-10T02:03:20.362Z,45.50
2023-03-10T02:06:02.361Z,44.30
2023-03-10T02:08:44.175Z,44.20
2023-03-10T02:11:15.287Z,38.80
2023-03-10T02:13:44.332Z,41.50
2023-03-10T02:16:15.385Z,41.20
2023-03-10T02:18:46.563Z,36.40
2023-03-10T02:21:31.209Z,38.70
2023-03-10T02:24:18.460Z,35.70
2023-03-10T02:26:56.840Z,36.30
2023-03-10T02:30:00.075Z,35.90
2023-03-10T02:32:34.337Z,36.50
2023-03-10T02:35:04.387Z,40.50
2023-03-10T02:37:35.712Z,36.40
2023-03-10T02:40:23.061Z,30.40
2023-03-10T02:42:52.832Z,34.30
2023-03-10T02:45:21.620Z,36.50
2023-03-10T02:47:50.586Z,30.50
2023-03-10T02:50:20.760Z,30.40
2023-03-10T02:52:59.366Z,29.60
2023-03-10T02:55:28.669Z,27.30
2023-03-10T02:57:57.528Z,28.40
2023-03-10T03:00:26.308Z,30.10
2023-03-10T03:02:55.044Z,30.40
2023-03-10T03:05:24.500Z,29.00
2023-03-10T03:07:53.189Z,29.30
2023-03-10T03:10:21.919Z,28.60
2023-03-10T03:12:51.608Z,25.40
2023-03-10T03:15:20.438Z,24.60
2023-03-10T03:17:49.890Z,26.90
2023-03-10T03:20:19.261Z,26.10
2023-03-10T03:22:48.589Z,26.50
2023-03-10T03:25:20.475Z,28.70
2023-03-10T03:27:51.094Z,27.40
2023-03-10T03:30:23.830Z,23.90
2023-03-10T03:32:53.791Z,30.90
2023-03-10T03:35:30.008Z,32.60
2023-03-10T03:37:58.750Z,29.00
2023-03-10T03:40:30.225Z,31.20
2023-03-10T03:43:01.022Z,32.20
2023-03-10T03:45:32.549Z,27.90
2023-03-10T03:48:01.328Z,32.10
2023-03-10T03:50:30.143Z,31.50
2023-03-10T03:52:59.325Z,31.60
2023-03-10T03:55:29.625Z,32.00
2023-03-10T03:57:58.261Z,32.30
2023-03-10T04:00:27.427Z,34.80
2023-03-10T04:02:56.758Z,36.00
2023-03-10T04:05:26.166Z,33.90
2023-03-10T04:07:55.389Z,35.80
2023-03-10T04:10:24.519Z,37.70
2023-03-10T04:12:53.317Z,35.60
2023-03-10T04:15:22.010Z,38.20
2023-03-10T04:17:51.271Z,37.20
2023-03-10T04:20:21.218Z,39.60
2023-03-10T04:22:50.310Z,36.50
2023-03-10T04:25:19.534Z,37.50
2023-03-10T04:27:48.582Z,41.30
2023-03-10T04:30:17.312Z,47.10
2023-03-10T04:32:48.744Z,42.30
2023-03-10T04:35:17.877Z,40.40
2023-03-10T04:37:46.809Z,42.30
2023-03-10T04:40:16.318Z,45.50
2023-03-10T04:42:45.000Z,42.10
2023-03-10T04:45:14.399Z,44.70
2023-03-10T04:47:43.085Z,49.60
2023-03-10T04:50:13.204Z,48.90
2023-03-10T04:52:41.923Z,47.00
2023-03-10T04:55:11.775Z,48.40
2023-03-10T04:57:40.840Z,50.10
2023-03-10T05:00:13.116Z,51.20
2023-03-10T05:02:43.040Z,51.50
2023-03-10T05:05:12.843Z,54.20
2023-03-10T05:07:41.463Z,55.10
2023-03-10T05:10:11.407Z,52.60
2023-03-10T05:12:42.521Z,51.20
2023-03-10T05:15:12.096Z,50.40
2023-03-10T05:17:41.416Z,49.80
2023-03-10T05:20:10.904Z,45.10
2023-03-10T05:22:39.584Z,53.90
2023-03-10T05:25:10.831Z,50.20
2023-03-10T05:27:39.651Z,51.70
2023-03-10T05:30:12.328Z,53.90
2023-03-10T05:32:42.203Z,55.30
2023-03-10T05:35:12.374Z,56.40
2023-03-10T05:37:43.034Z,51.30
2023-03-10T05:40:19.728Z,52.50
2023-03-10T05:42:49.759Z,54.70
2023-03-10T05:45:19.012Z,49.30
2023-03-10T05:47:48.055Z,48.90
2023-03-10T05:50:16.853Z,47.70
2023-03-10T05:52:45.954Z,53.60
2023-03-10T05:55:18.619Z,47.20
2023-03-10T05:57:48.326Z,52.00
2023-03-10T06:00:17.609Z,48.40
2023-03-10T06:02:46.921Z,54.90
2023-03-10T06:05:15.867Z,51.10
2023-03-10T06:07:44.966Z,48.00
2023-03-10T06:10:13.682Z,45.60
2023-03-10T06:12:42.465Z,51.00
2023-03-10T06:15:11.701Z,50.90
2023-03-10T06:17:41.704Z,50.90
2023-03-10T06:20:10.897Z,50.60
2023-03-10T06:22:39.676Z,45.60
2023-03-10T06:25:09.104Z,45.70
2023-03-10T06:27:37.817Z,50.70
2023-03-10T06:30:07.268Z,54.90
2023-03-10T06:32:35.958Z,54.00
2023-03-10T06:35:05.496Z,49.20
2023-03-10T06:37:34.203Z,49.30
2023-03-10T06:40:04.212Z,49.60
2023-03-10T06:42:33.324Z,49.80
2023-03-10T06:45:01.977Z,44.60
2023-03-10T06:47:30.443Z,46.10
2023-03-10T06:49:58.997Z,47.50
2023-03-10T06:52:28.162Z,49.80
2023-03-10T06:54:57.327Z,44.90
2023-03-10T06:57:26.072Z,45.50
2023-03-10T06:59:55.562Z,43.80
2023-03-10T07:02:24.400Z,48.00
2023-03-10T07:04:53.792Z,44.50
2023-03-10T07:07:22.979Z,44.00
2023-03-10T07:09:52.295Z,44.10
2023-03-10T07:12:21.435Z,45.70
2023-03-10T07:14:50.319Z,47.00
2023-03-10T07:17:19.178Z,43.20
2023-03-10T07:19:47.986Z,39.10
2023-03-10T07:22:17.265Z,40.40
2023-03-10T07:24:45.896Z,42.50
2023-03-10T07:27:15.056Z,43.30
2023-03-10T07:29:43.696Z,35.90
2023-03-10T07:32:12.776Z,39.10
2023-03-10T07:34:41.922Z,40.80
2023-03-10T07:37:11.220Z,42.00
2023-03-10T07:39:39.906Z,40.00
2023-03-10T07:42:09.163Z,37.20
2023-03-10T07:44:38.371Z,36.80
2023-03-10T07:47:07.580Z,38.80
2023-03-10T07:49:36.328Z,37.60
2023-03-10T07:52:05.810Z,38.90
2023-03-10T07:54:34.538Z,37.10
2023-03-10T07:57:03.753Z,31.60
2023-03-10T07:59:32.336Z,31.00
2023-03-10T08:02:01.477Z,42.30
2023-03-10T08:04:30.349Z,38.20
2023-03-10T08:07:02.602Z,39.60
2023-03-10T08:09:31.769Z,30.80
2023-03-10T08:12:02.053Z,30.50
2023-03-10T08:14:31.976Z,27.00
2023-03-10T08:17:01.111Z,27.20
2023-03-10T08:19:30.177Z,18.50
2023-03-10T08:21:59.013Z,23.60
2023-03-10T08:24:28.243Z,21.90
2023-03-10T08:26:57.624Z,20.10
2023-03-10T08:29:26.298Z,19.40
2023-03-10T08:31:55.079Z,20.30
2023-03-10T08:34:24.586Z,20.00
2023-03-10T08:36:53.305Z,18.70
2023-03-10T08:39:22.572Z,14.10
2023-03-10T08:41:51.605Z,12.30
2023-03-10T08:44:20.890Z,12.00
2023-03-10T08:46:50.552Z,9.40
2023-03-10T08:49:21.716Z,8.10
2023-03-10T08:51:50.618Z,9.90
2023-03-10T08:54:21.749Z,9.40
2023-03-10T08:56:51.051Z,8.90
2023-03-10T08:59:21.283Z,10.80
2023-03-10T09:01:52.722Z,8.30
2023-03-10T09:04:21.550Z,6.70
2023-03-10T09:06:50.281Z,9.10
2023-03-10T09:09:19.430Z,7.10
2023-03-10T09:11:48.080Z,8.20
2023-03-10T09:14:20.555Z,8.30
2023-03-10T09:16:49.278Z,8.20
2023-03-10T09:19:17.857Z,8.80
2023-03-10T09:21:48.091Z,10.00
2023-03-10T09:24:18.303Z,8.90
2023-03-10T09:26:47.386Z,8.10
2023-03-10T09:29:17.549Z,6.00
2023-03-10T09:31:48.005Z,7.50
2023-03-10T09:34:16.968Z,6.70
2023-03-10T09:36:46.787Z,7.50
2023-03-10T09:39:15.859Z,6.10
2023-03-10T09:42:06.165Z,7.60
2023-03-10T09:45:22.800Z,6.80
2023-03-10T09:48:05.027Z,6.70
2023-03-10T09:50:43.999Z,7.20
2023-03-10T09:53:15.675Z,6.50
2023-03-10T09:55:48.456Z,7.50
2023-03-10T09:58:46.393Z,8.70
2023-03-10T10:01:28.384Z,8.00
2023-03-10T10:04:34.574Z,5.70
2023-03-10T10:07:11.333Z,7.60
2023-03-10T10:10:04.733Z,8.50
2023-03-10T10:12:34.203Z,5.20
2023-03-10T10:15:25.884Z,8.40
2023-03-10T10:18:27.553Z,8.20
2023-03-10T10:21:05.467Z,7.20
2023-03-10T10:23:49.325Z,5.40
2023-03-10T10:26:21.373Z,6.10
2023-03-10T10:29:14.303Z,5.30
2023-03-10T10:32:01.520Z,8.00
2023-03-10T10:34:32.399Z,5.50
2023-03-10T10:37:01.566Z,6.60
2023-03-10T10:39:39.504Z,5.70
2023-03-10T10:42:32.865Z,5.70
2023-03-10T10:45:24.150Z,6.20
2023-03-10T10:47:55.629Z,6.70
2023-03-10T10:50:28.690Z,5.80
2023-03-10T10:53:34.759Z,6.20
2023-03-10T10:56:13.379Z,6.70
2023-03-10T10:58:44.890Z,5.50
2023-03-10T11:01:17.055Z,5.10
2023-03-10T11:04:13.268Z,5.90
2023-03-10T11:06:42.025Z,6.00
2023-03-10T11:09:23.222Z,4.30
2023-03-10T11:12:07.762Z,5.70
2023-03-10T11:15:09.448Z,4.30
2023-03-10T11:18:29.620Z,5.70
2023-03-10T11:21:12.971Z,6.30
2023-03-10T11:24:13.964Z,3.90
2023-03-10T11:27:05.418Z,5.40
2023-03-10T11:29:55.643Z,7.00
2023-03-10T11:32:41.582Z,8.10
2023-03-10T11:35:19.797Z,5.60
2023-03-10T11:37:59.011Z,5.20
2023-03-10T11:40:48.302Z,6.70
2023-03-10T11:43:56.843Z,5.90
2023-03-10T11:46:56.738Z,6.10
2023-03-10T11:49:31.654Z,6.80
2023-03-10T11:52:02.667Z,8.30
2023-03-10T11:54:45.670Z,4.50
2023-03-10T11:57:37.965Z,7.50
2023-03-10T12:00:31.995Z,4.70
2023-03-10T12:03:20.467Z,4.00
2023-03-10T12:05:56.996Z,4.60
2023-03-10T12:08:33.589Z,13.60
2023-03-10T12:11:06.616Z,23.70
2023-03-10T12:13:44.810Z,20.00
2023-03-10T12:16:21.789Z,8.50
2023-03-10T12:18:51.384Z,8.30
2023-03-10T12:21:25.866Z,7.90
2023-03-10T12:23:58.262Z,7.00
2023-03-10T12:27:03.975Z,6.90
2023-03-10T12:29:36.023Z,3.90
2023-03-10T12:32:05.903Z,5.80
2023-03-10T12:34:34.923Z,5.00
2023-03-10T12:37:05.261Z,14.90
2023-03-10T12:39:42.320Z,10.30
2023-03-10T12:42:29.073Z,8.40
2023-03-10T12:45:28.823Z,5.30
2023-03-10T12:48:11.722Z,5.00
2023-03-10T12:50:58.821Z,5.80
2023-03-10T12:53:40.910Z,5.70
2023-03-10T12:56:12.319Z,6.50
2023-03-10T12:58:47.073Z,5.20
2023-03-10T13:01:24.666Z,5.70
2023-03-10T13:03:55.799Z,5.20
2023-03-10T13:06:33.582Z,3.90
2023-03-10T13:09:15.618Z,5.20
2023-03-10T13:12:05.685Z,5.60
2023-03-10T13:14:41.386Z,5.40
2023-03-10T13:17:26.425Z,5.50
2023-03-10T13:19:59.298Z,7.90
2023-03-10T13:22:28.865Z,4.20
2023-03-10T13:25:09.853Z,5.00
2023-03-10T13:27:38.457Z,5.40
2023-03-10T13:30:20.456Z,5.70
2023-03-10T13:32:56.943Z,9.90
2023-03-10T13:35:38.357Z,4.80
2023-03-10T13:38:09.603Z,8.80
2023-03-10T13:40:43.332Z,7.00
2023-03-10T13:43:25.020Z,5.20
2023-03-10T13:45:56.529Z,4.40
2023-03-10T13:48:26.896Z,4.80
2023-03-10T13:51:17.792Z,5.00
2023-03-10T13:53:50.273Z,6.00
2023-03-10T13:56:33.603Z,6.70
2023-03-10T13:59:04.278Z,6.00
2023-03-10T14:01:43.364Z,7.60
2023-03-10T14:04:19.846Z,8.60
2023-03-10T14:07:08.098Z,7.40
2023-03-10T14:09:38.943Z,5.80
2023-03-10T14:12:09.379Z,6.80
2023-03-10T14:14:39.296Z,7.10
2023-03-10T14:17:29.880Z,6.50
2023-03-10T14:19:58.613Z,9.40
2023-03-10T14:22:38.166Z,8.20
2023-03-10T14:25:10.852Z,10.80
2023-03-10T14:27:42.972Z,8.60
2023-03-10T14:30:22.782Z,6.20
2023-03-10T14:32:52.391Z,6.80
2023-03-10T14:35:22.893Z,6.60
2023-03-10T14:37:53.472Z,7.20
2023-03-10T14:40:25.791Z,6.00
2023-03-10T14:42:57.888Z,7.10
2023-03-10T14:45:33.917Z,6.30
2023-03-10T14:48:11.053Z,4.70
2023-03-10T14:50:39.961Z,5.00
2023-03-10T14:53:15.740Z,4.60
2023-03-10T14:55:48.273Z,4.90
2023-03-10T14:58:21.642Z,3.90
2023-03-10T15:00:51.460Z,4.70
2023-03-10T15:03:20.682Z,4.90
2023-03-10T15:05:49.676Z,4.30
2023-03-10T15:08:18.979Z,3.10
2023-03-10T15:10:51.396Z,3.80
2023-03-10T15:13:24.443Z,3.50
2023-03-10T15:15:54.026Z,3.80
2023-03-10T15:18:24.604Z,3.20
2023-03-10T15:21:01.801Z,3.20
2023-03-10T15:23:31.221Z,5.70
2023-03-10T15:26:00.006Z,4.30
2023-03-10T15:28:28.640Z,4.50
2023-03-10T15:30:57.883Z,5.20
2023-03-10T15:33:26.731Z,5.50
2023-03-10T15:35:55.729Z,6.00
2023-03-10T15:38:24.833Z,9.60
2023-03-10T15:40:53.860Z,8.40
2023-03-10T15:43:23.757Z,8.70
2023-03-10T15:45:53.349Z,9.00
2023-03-10T15:48:22.646Z,16.20
2023-03-10T15:50:51.422Z,12.40
2023-03-10T15:53:20.642Z,17.40
2023-03-10T15:55:52.727Z,37.00
2023-03-10T15:58:21.657Z,32.00
2023-03-10T16:00:50.894Z,25.40
2023-03-10T16:03:20.012Z,24.70
2023-03-10T16:05:49.380Z,20.50
2023-03-10T16:08:19.553Z,17.90
2023-03-10T16:10:55.698Z,18.10
2023-03-10T16:13:25.309Z,14.20
2023-03-10T16:15:54.118Z,14.20
2023-03-10T16:18:23.417Z,16.00
2023-03-10T16:21:01.179Z,8.40
2023-03-10T16:23:32.423Z,8.40
2023-03-10T16:26:11.978Z,7.10
2023-03-10T16:28:53.658Z,6.50
2023-03-10T16:31:25.244Z,7.40
2023-03-10T16:33:55.388Z,9.20
2023-03-10T16:36:27.661Z,10.10
2023-03-10T16:38:57.737Z,15.00
2023-03-10T16:41:28.607Z,17.90
2023-03-10T16:43:59.303Z,24.90
2023-03-10T16:46:32.192Z,18.30
2023-03-10T16:49:02.576Z,13.90
2023-03-10T16:51:39.007Z,16.60
2023-03-10T16:54:14.089Z,17.10
2023-03-10T16:56:48.007Z,12.80
2023-03-10T16:59:21.955Z,13.70
2023-03-10T17:04:22.335Z,12.90
2023-03-10T17:06:52.672Z,9.60
2023-03-10T17:09:23.060Z,10.10
2023-03-10T17:11:55.335Z,9.00
2023-03-10T17:14:24.418Z,19.10
2023-03-10T17:16:56.441Z,15.60
2023-03-10T17:19:30.522Z,22.00
2023-03-10T17:21:59.579Z,32.80
2023-03-10T17:24:30.662Z,40.60
2023-03-10T17:27:00.015Z,28.90
2023-03-10T17:29:29.311Z,22.10
2023-03-10T17:31:59.534Z,23.30
2023-03-10T17:34:30.658Z,27.30
2023-03-10T17:37:00.092Z,24.70
2023-03-10T17:39:29.602Z,23.00
2023-03-10T17:41:59.348Z,22.90
2023-03-10T17:44:29.838Z,21.20
2023-03-10T17:47:00.858Z,19.10
2023-03-10T17:49:31.198Z,16.10
2023-03-10T17:52:08.058Z,18.80
2023-03-10T17:54:40.216Z,18.10
2023-03-10T17:57:10.121Z,23.10
2023-03-10T17:59:43.939Z,18.30
2023-03-10T18:02:14.154Z,19.70
2023-03-10T18:04:48.523Z,22.10
2023-03-10T18:07:18.444Z,22.00
2023-03-10T18:09:47.724Z,24.40
2023-03-10T18:12:17.864Z,22.60
2023-03-10T18:14:49.329Z,21.90
2023-03-10T18:17:19.264Z,27.60
2023-03-10T18:19:53.465Z,38.60
2023-03-10T18:22:23.887Z,38.00
2023-03-10T18:24:57.023Z,39.10
2023-03-10T18:27:26.129Z,30.40
2023-03-10T18:29:59.480Z,22.60
2023-03-10T18:32:38.777Z,22.20
2023-03-10T18:35:12.067Z,24.80
2023-03-10T18:37:42.838Z,18.80
2023-03-10T18:40:16.868Z,22.20
2023-03-10T18:42:47.459Z,18.80
2023-03-10T18:45:17.598Z,19.20
2023-03-10T18:47:47.545Z,21.00
2023-03-10T18:50:17.923Z,18.10
2023-03-10T18:52:49.360Z,20.70
2023-03-10T18:55:19.351Z,21.60
2023-03-10T18:57:49.980Z,17.00
2023-03-10T19:00:20.922Z,19.70
2023-03-10T19:02:54.914Z,26.40
2023-03-10T19:05:26.824Z,19.90
2023-03-10T19:07:57.642Z,18.80
2023-03-10T19:10:27.763Z,20.00
2023-03-10T19:12:59.297Z,41.20
2023-03-10T19:15:33.755Z,27.80
2023-03-10T19:18:06.706Z,18.80
2023-03-10T19:20:37.749Z,20.90
2023-03-10T19:23:12.977Z,19.30
2023-03-10T19:25:44.503Z,18.40
2023-03-10T19:28:16.377Z,19.30
2023-03-10T19:30:49.048Z,18.40
2023-03-10T19:33:20.501Z,19.50
2023-03-10T19:35:51.750Z,18.80
2023-03-10T19:38:23.539Z,21.40
2023-03-10T19:40:54.524Z,26.20
2023-03-10T19:43:26.145Z,32.50
2023-03-10T19:46:05.780Z,27.70
2023-03-10T19:48:36.780Z,23.20
2023-03-10T19:51:12.503Z,20.20
2023-03-10T19:53:45.550Z,18.50
2023-03-10T19:56:19.137Z,17.30
2023-03-10T19:58:52.480Z,19.50
2023-03-10T20:01:25.626Z,22.80
2023-03-10T20:04:01.180Z,21.40
2023-03-10T20:06:35.593Z,17.40
2023-03-10T20:09:11.421Z,26.50
2023-03-10T20:11:42.782Z,29.50
2023-03-10T20:14:14.225Z,28.10
2023-03-10T20:16:44.810Z,53.40
2023-03-10T20:19:14.580Z,32.40
2023-03-10T20:21:45.441Z,29.70
2023-03-10T20:24:16.107Z,27.60
2023-03-10T20:26:47.220Z,24.30
2023-03-10T20:29:19.379Z,34.30
2023-03-10T20:31:50.075Z,29.50
2023-03-10T20:34:23.022Z,30.10
2023-03-10T20:36:53.296Z,25.30
2023-03-10T20:39:23.160Z,23.50
2023-03-10T20:41:55.225Z,26.60
2023-03-10T20:44:31.109Z,22.40
2023-03-10T20:47:02.888Z,24.00
2023-03-10T20:49:32.770Z,23.00
2023-03-10T20:52:03.857Z,34.30
2023-03-10T20:54:33.819Z,20.70
2023-03-10T20:57:04.374Z,20.70
2023-03-10T20:59:34.478Z,19.90
2023-03-10T21:02:06.549Z,48.00
2023-03-10T21:04:38.202Z,25.80
2023-03-10T21:07:08.649Z,28.70
2023-03-10T21:09:38.045Z,30.80
2023-03-10T21:12:09.287Z,19.90
2023-03-10T21:14:38.852Z,21.40
2023-03-10T21:17:09.650Z,19.40
2023-03-10T21:19:40.114Z,23.10
2023-03-10T21:22:10.189Z,20.40
2023-03-10T21:24:40.623Z,19.10
2023-03-10T21:27:10.959Z,17.50
2023-03-10T21:29:40.647Z,19.70
2023-03-10T21:32:10.210Z,22.40
2023-03-10T21:34:39.521Z,23.10
2023-03-10T21:37:09.606Z,22.70
2023-03-10T21:39:38.625Z,21.00
2023-03-10T21:42:07.535Z,20.30
2023-03-10T21:44:36.453Z,21.40
2023-03-10T21:47:05.785Z,21.00
2023-03-10T21:49:35.005Z,21.90
2023-03-10T21:52:04.405Z,24.60
2023-03-10T21:54:33.376Z,25.60
2023-03-10T21:57:02.468Z,22.90
2023-03-10T21:59:31.168Z,24.90
2023-03-10T22:02:00.327Z,20.80
2023-03-10T22:04:29.420Z,23.50
2023-03-10T22:06:58.146Z,23.80
2023-03-10T22:09:28.752Z,24.50
2023-03-10T22:11:58.305Z,26.40
2023-03-10T22:14:28.147Z,23.00
2023-03-10T22:16:56.874Z,23.60
2023-03-10T22:19:25.721Z,26.00
2023-03-10T22:21:54.485Z,25.50
2023-03-10T22:24:23.145Z,22.70
2023-03-10T22:26:52.625Z,23.00
2023-03-10T22:29:21.404Z,20.90
2023-03-10T22:31:53.689Z,21.20
2023-03-10T22:34:22.964Z,21.30
2023-03-10T22:36:52.202Z,21.70
2023-03-10T22:39:21.779Z,20.80
2023-03-10T22:41:51.543Z,19.10
2023-03-10T22:44:20.214Z,18.50
2023-03-10T22:46:49.015Z,15.30
2023-03-10T22:49:19.020Z,15.80
2023-03-10T22:51:47.694Z,12.00
2023-03-10T22:54:16.457Z,13.20
2023-03-10T22:56:45.673Z,10.10
2023-03-10T22:59:14.719Z,10.60
2023-03-10T23:01:44.309Z,10.60
2023-03-10T23:04:14.267Z,9.60
2023-03-10T23:06:42.995Z,10.10
2023-03-10T23:09:11.823Z,10.70
2023-03-10T23:11:40.501Z,8.30
2023-03-10T23:14:09.077Z,8.40
2023-03-10T23:16:38.674Z,6.60
2023-03-10T23:19:08.725Z,8.60
2023-03-10T23:21:37.599Z,7.70
2023-03-10T23:24:07.109Z,6.20
2023-03-10T23:26:37.882Z,8.00
2023-03-10T23:29:06.497Z,6.70
2023-03-10T23:31:35.370Z,8.30
2023-03-10T23:34:04.197Z,7.70
2023-03-10T23:36:32.983Z,7.80
2023-03-10T23:39:01.746Z,8.60
2023-03-10T23:41:31.119Z,5.80
2023-03-10T23:43:59.781Z,8.20
2023-03-10T23:46:29.221Z,5.70
2023-03-10T23:48:58.397Z,8.20
2023-03-10T23:51:27.096Z,6.90
2023-03-10T23:53:55.738Z,6.60
2023-03-10T23:56:24.855Z,8.10
2023-03-10T23:58:53.502Z,7.10
